sensor_id;sensor_type;location;lat;lon;timestamp;pressure;altitude;pressure_sealevel;temperature;humidity
43161;BME280;40968;52.342;5.528;2023-11-19T00:00:59;100700.34;;;12.00;100.00
43161;BME280;40968;52.342;5.528;2023-11-19T00:03:26;100700.81;;;12.05;100.00
43161;BME280;40968;52.342;5.528;2023-11-19T00:05:53;100715.19;;;12.15;100.00
43161;BME280;40968;52.342;5.528;2023-11-19T00:08:21;100728.88;;;12.12;100.00
43161;BME280;40968;52.342;5.528;2023-11-19T00:10:50;100713.09;;;12.19;100.00
43161;BME280;40968;52.342;5.528;2023-11-19T00:13:16;100707.88;;;12.17;100.00
43161;BME280;40968;52.342;5.528;2023-11-19T00:15:44;100716.41;;;12.22;100.00
43161;BME280;40968;52.342;5.528;2023-11-19T00:18:12;100679.13;;;11.97;100.00
43161;BME280;40968;52.342;5.528;2023-11-19T00:20:39;100576.75;;;11.35;100.00
43161;BME280;40968;52.342;5.528;2023-11-19T00:23:06;100599.88;;;11.58;100.00
43161;BME280;40968;52.342;5.528;2023-11-19T00:25:33;100716.00;;;12.27;100.00
43161;BME280;40968;52.342;5.528;2023-11-19T00:27:59;100663.75;;;11.99;100.00
43161;BME280;40968;52.342;5.528;2023-11-19T00:30:26;100691.66;;;12.07;100.00
43161;BME280;40968;52.342;5.528;2023-11-19T00:32:54;100715.88;;;12.28;100.00
43161;BME280;40968;52.342;5.528;2023-11-19T00:35:20;100646.38;;;12.03;100.00
43161;BME280;40968;52.342;5.528;2023-11-19T00:37:47;100596.97;;;11.83;100.00
43161;BME280;40968;52.342;5.528;2023-11-19T00:40:15;100669.06;;;12.31;100.00
43161;BME280;40968;52.342;5.528;2023-11-19T00:42:43;100668.22;;;12.31;100.00
43161;BME280;40968;52.342;5.528;2023-11-19T00:45:10;100621.94;;;12.06;100.00
43161;BME280;40968;52.342;5.528;2023-11-19T00:47:38;100603.91;;;11.97;100.00
43161;BME280;40968;52.342;5.528;2023-11-19T00:50:07;100669.22;;;12.30;100.00
43161;BME280;40968;52.342;5.528;2023-11-19T00:52:35;100680.94;;;12.28;100.00
43161;BME280;40968;52.342;5.528;2023-11-19T00:55:02;100689.00;;;12.28;100.00
43161;BME280;40968;52.342;5.528;2023-11-19T00:57:29;100572.78;;;11.61;100.00
43161;BME280;40968;52.342;5.528;2023-11-19T00:59:57;100687.03;;;12.31;100.00
43161;BME280;40968;52.342;5.528;2023-11-19T01:02:24;100685.31;;;12.30;100.00
43161;BME280;40968;52.342;5.528;2023-11-19T01:04:50;100678.78;;;12.22;100.00
43161;BME280;40968;52.342;5.528;2023-11-19T01:07:19;100699.50;;;12.32;100.00
43161;BME280;40968;52.342;5.528;2023-11-19T01:09:47;100676.88;;;12.13;100.00
43161;BME280;40968;52.342;5.528;2023-11-19T01:12:13;100681.47;;;12.22;100.00
43161;BME280;40968;52.342;5.528;2023-11-19T01:14:40;100595.44;;;11.69;100.00
43161;BME280;40968;52.342;5.528;2023-11-19T01:17:06;100646.38;;;12.03;100.00
43161;BME280;40968;52.342;5.528;2023-11-19T01:19:34;100611.00;;;11.86;100.00
43161;BME280;40968;52.342;5.528;2023-11-19T01:22:00;100677.53;;;12.26;100.00
43161;BME280;40968;52.342;5.528;2023-11-19T01:24:28;100565.19;;;11.67;100.00
43161;BME280;40968;52.342;5.528;2023-11-19T01:26:56;100615.81;;;12.04;100.00
43161;BME280;40968;52.342;5.528;2023-11-19T01:29:25;100665.28;;;12.34;100.00
43161;BME280;40968;52.342;5.528;2023-11-19T01:31:51;100668.09;;;12.32;100.00
43161;BME280;40968;52.342;5.528;2023-11-19T01:34:18;100621.19;;;12.04;100.00
43161;BME280;40968;52.342;5.528;2023-11-19T01:36:46;100639.81;;;12.17;100.00
43161;BME280;40968;52.342;5.528;2023-11-19T01:39:14;100661.88;;;12.32;100.00
43161;BME280;40968;52.342;5.528;2023-11-19T01:41:42;100653.81;;;12.32;100.00
43161;BME280;40968;52.342;5.528;2023-11-19T01:44:09;100614.00;;;12.04;100.00
43161;BME280;40968;52.342;5.528;2023-11-19T01:46:38;100617.31;;;12.08;100.00
43161;BME280;40968;52.342;5.528;2023-11-19T01:49:05;100644.03;;;12.31;100.00
43161;BME280;40968;52.342;5.528;2023-11-19T01:51:32;100645.75;;;12.32;100.00
43161;BME280;40968;52.342;5.528;2023-11-19T01:54:00;100615.09;;;12.13;100.00
43161;BME280;40968;52.342;5.528;2023-11-19T01:56:28;100647.44;;;12.33;100.00
43161;BME280;40968;52.342;5.528;2023-11-19T01:58:57;100651.97;;;12.32;100.00
43161;BME280;40968;52.342;5.528;2023-11-19T02:01:24;100521.47;;;11.43;100.00
43161;BME280;40968;52.342;5.528;2023-11-19T02:03:51;100619.75;;;12.00;100.00
43161;BME280;40968;52.342;5.528;2023-11-19T02:06:18;100517.47;;;11.38;100.00
43161;BME280;40968;52.342;5.528;2023-11-19T02:08:44;100679.69;;;12.33;100.00
43161;BME280;40968;52.342;5.528;2023-11-19T02:11:11;100557.53;;;11.62;100.00
43161;BME280;40968;52.342;5.528;2023-11-19T02:13:38;100678.97;;;12.31;100.00
43161;BME280;40968;52.342;5.528;2023-11-19T02:16:08;100550.19;;;11.64;100.00
43161;BME280;40968;52.342;5.528;2023-11-19T02:18:36;100663.84;;;12.30;100.00
43161;BME280;40968;52.342;5.528;2023-11-19T02:21:03;100616.97;;;11.90;100.00
43161;BME280;40968;52.342;5.528;2023-11-19T02:23:30;100657.53;;;12.19;100.00
43161;BME280;40968;52.342;5.528;2023-11-19T02:26:04;100664.34;;;12.23;100.00
43161;BME280;40968;52.342;5.528;2023-11-19T02:28:33;100653.88;;;12.20;100.00
43161;BME280;40968;52.342;5.528;2023-11-19T02:31:00;100572.78;;;11.61;99.77
43161;BME280;40968;52.342;5.528;2023-11-19T02:33:26;100652.69;;;12.13;99.79
43161;BME280;40968;52.342;5.528;2023-11-19T02:35:53;100658.44;;;12.08;99.73
43161;BME280;40968;52.342;5.528;2023-11-19T02:38:20;100626.03;;;11.77;99.59
43161;BME280;40968;52.342;5.528;2023-11-19T02:40:47;100653.69;;;11.89;99.59
43161;BME280;40968;52.342;5.528;2023-11-19T02:43:14;100645.31;;;11.83;99.60
43161;BME280;40968;52.342;5.528;2023-11-19T02:45:43;100595.47;;;11.57;99.31
43161;BME280;40968;52.342;5.528;2023-11-19T02:48:11;100634.69;;;11.81;99.34
43161;BME280;40968;52.342;5.528;2023-11-19T02:50:37;100656.16;;;11.92;99.24
43161;BME280;40968;52.342;5.528;2023-11-19T02:53:04;100662.63;;;11.90;99.16
43161;BME280;40968;52.342;5.528;2023-11-19T02:55:32;100645.94;;;11.75;98.97
43161;BME280;40968;52.342;5.528;2023-11-19T02:58:03;100505.41;;;10.88;98.88
43161;BME280;40968;52.342;5.528;2023-11-19T03:00:46;100488.34;;;10.78;98.86
43161;BME280;40968;52.342;5.528;2023-11-19T03:03:17;100653.50;;;11.81;99.15
43161;BME280;40968;52.342;5.528;2023-11-19T03:05:46;100573.00;;;11.26;98.87
43161;BME280;40968;52.342;5.528;2023-11-19T03:08:13;100596.78;;;11.31;98.72
43161;BME280;40968;52.342;5.528;2023-11-19T03:10:40;100639.16;;;11.59;98.61
43161;BME280;40968;52.342;5.528;2023-11-19T03:13:11;100535.25;;;10.95;98.63
43161;BME280;40968;52.342;5.528;2023-11-19T03:15:38;100679.16;;;11.74;98.53
43161;BME280;40968;52.342;5.528;2023-11-19T03:18:06;100541.59;;;10.94;98.25
43161;BME280;40968;52.342;5.528;2023-11-19T03:20:32;100671.59;;;11.68;98.61
43161;BME280;40968;52.342;5.528;2023-11-19T03:22:59;100670.50;;;11.70;98.32
43161;BME280;40968;52.342;5.528;2023-11-19T03:25:26;100679.66;;;11.68;98.10
43161;BME280;40968;52.342;5.528;2023-11-19T03:27:58;100558.03;;;11.01;97.68
43161;BME280;40968;52.342;5.528;2023-11-19T03:30:25;100541.59;;;10.94;97.60
43161;BME280;40968;52.342;5.528;2023-11-19T03:32:51;100663.19;;;11.61;97.64
43161;BME280;40968;52.342;5.528;2023-11-19T03:35:19;100652.19;;;11.53;97.46
43161;BME280;40968;52.342;5.528;2023-11-19T03:37:46;100593.50;;;11.16;97.26
43161;BME280;40968;52.342;5.528;2023-11-19T03:40:13;100632.13;;;11.36;97.18
43161;BME280;40968;52.342;5.528;2023-11-19T03:42:40;100654.31;;;11.49;97.01
43161;BME280;40968;52.342;5.528;2023-11-19T03:45:07;100530.03;;;10.71;96.79
43161;BME280;40968;52.342;5.528;2023-11-19T03:47:35;100620.91;;;11.19;96.71
43161;BME280;40968;52.342;5.528;2023-11-19T03:50:02;100655.06;;;11.40;96.69
43161;BME280;40968;52.342;5.528;2023-11-19T03:52:30;100593.38;;;11.06;96.68
43161;BME280;40968;52.342;5.528;2023-11-19T03:54:57;100508.34;;;10.51;96.39
43161;BME280;40968;52.342;5.528;2023-11-19T03:57:24;100667.38;;;11.31;96.42
43161;BME280;40968;52.342;5.528;2023-11-19T03:59:50;100658.47;;;11.31;96.20
43161;BME280;40968;52.342;5.528;2023-11-19T04:02:17;100656.03;;;11.27;96.01
43161;BME280;40968;52.342;5.528;2023-11-19T04:04:43;100631.66;;;11.08;96.14
43161;BME280;40968;52.342;5.528;2023-11-19T04:07:10;100634.19;;;11.09;96.08
43161;BME280;40968;52.342;5.528;2023-11-19T04:09:38;100499.28;;;10.29;96.14
43161;BME280;40968;52.342;5.528;2023-11-19T04:12:05;100653.94;;;11.20;96.33
43161;BME280;40968;52.342;5.528;2023-11-19T04:14:32;100623.63;;;10.97;96.30
43161;BME280;40968;52.342;5.528;2023-11-19T04:16:58;100624.34;;;10.99;96.17
43161;BME280;40968;52.342;5.528;2023-11-19T04:19:25;100661.50;;;11.15;96.19
43161;BME280;40968;52.342;5.528;2023-11-19T04:21:51;100652.50;;;11.16;96.18
43161;BME280;40968;52.342;5.528;2023-11-19T04:24:18;100652.50;;;11.16;96.07
43161;BME280;40968;52.342;5.528;2023-11-19T04:26:46;100526.50;;;10.36;95.98
43161;BME280;40968;52.342;5.528;2023-11-19T04:29:15;100666.03;;;11.14;96.00
43161;BME280;40968;52.342;5.528;2023-11-19T04:31:43;100647.00;;;10.94;95.92
43161;BME280;40968;52.342;5.528;2023-11-19T04:34:11;100560.00;;;10.42;95.60
43161;BME280;40968;52.342;5.528;2023-11-19T04:36:38;100636.41;;;10.93;95.75
43161;BME280;40968;52.342;5.528;2023-11-19T04:39:05;100520.72;;;10.18;95.48
43161;BME280;40968;52.342;5.528;2023-11-19T04:41:34;100484.38;;;9.91;95.19
43161;BME280;40968;52.342;5.528;2023-11-19T04:44:02;100687.75;;;11.11;95.04
43161;BME280;40968;52.342;5.528;2023-11-19T04:46:29;100658.22;;;11.00;94.92
43161;BME280;40968;52.342;5.528;2023-11-19T04:48:55;100666.50;;;11.08;94.88
43161;BME280;40968;52.342;5.528;2023-11-19T04:51:22;100684.56;;;11.06;94.64
43161;BME280;40968;52.342;5.528;2023-11-19T04:53:49;100584.22;;;10.40;94.50
43161;BME280;40968;52.342;5.528;2023-11-19T04:56:15;100683.94;;;11.02;94.44
43161;BME280;40968;52.342;5.528;2023-11-19T04:58:45;100682.25;;;11.01;94.56
43161;BME280;40968;52.342;5.528;2023-11-19T05:01:14;100663.22;;;10.93;94.42
43161;BME280;40968;52.342;5.528;2023-11-19T05:03:43;100676.25;;;10.98;94.65
43161;BME280;40968;52.342;5.528;2023-11-19T05:06:09;100521.41;;;9.98;94.22
43161;BME280;40968;52.342;5.528;2023-11-19T05:08:36;100661.16;;;10.85;94.26
43161;BME280;40968;52.342;5.528;2023-11-19T05:11:03;100664.06;;;10.93;94.27
43161;BME280;40968;52.342;5.528;2023-11-19T05:13:31;100654.31;;;10.81;94.16
43161;BME280;40968;52.342;5.528;2023-11-19T05:15:57;100654.31;;;10.81;93.95
43161;BME280;40968;52.342;5.528;2023-11-19T05:18:25;100613.34;;;10.56;93.79
43161;BME280;40968;52.342;5.528;2023-11-19T05:20:52;100649.91;;;10.69;93.78
43161;BME280;40968;52.342;5.528;2023-11-19T05:23:18;100680.16;;;10.93;93.50
43161;BME280;40968;52.342;5.528;2023-11-19T05:25:45;100648.47;;;10.76;93.45
43161;BME280;40968;52.342;5.528;2023-11-19T05:28:12;100672.13;;;10.93;93.30
43161;BME280;40968;52.342;5.528;2023-11-19T05:30:40;100680.16;;;10.93;93.04
43161;BME280;40968;52.342;5.528;2023-11-19T05:33:06;100644.44;;;10.82;92.85
43161;BME280;40968;52.342;5.528;2023-11-19T05:35:36;100674.56;;;10.97;92.82
43161;BME280;40968;52.342;5.528;2023-11-19T05:38:02;100532.28;;;10.07;92.34
43161;BME280;40968;52.342;5.528;2023-11-19T05:40:29;100660.66;;;10.80;92.11
43161;BME280;40968;52.342;5.528;2023-11-19T05:42:55;100686.75;;;11.01;92.06
43161;BME280;40968;52.342;5.528;2023-11-19T05:45:22;100609.22;;;10.52;91.91
43161;BME280;40968;52.342;5.528;2023-11-19T05:47:48;100689.31;;;11.02;91.86
43161;BME280;40968;52.342;5.528;2023-11-19T05:50:17;100686.75;;;11.01;91.67
43161;BME280;40968;52.342;5.528;2023-11-19T05:52:45;100697.50;;;11.01;91.35
43161;BME280;40968;52.342;5.528;2023-11-19T05:55:12;100663.19;;;10.82;91.09
43161;BME280;40968;52.342;5.528;2023-11-19T05:57:39;100663.06;;;10.83;90.92
43161;BME280;40968;52.342;5.528;2023-11-19T06:00:07;100688.69;;;10.99;90.97
43161;BME280;40968;52.342;5.528;2023-11-19T06:02:35;100629.69;;;10.65;90.95
43161;BME280;40968;52.342;5.528;2023-11-19T06:05:04;100704.66;;;11.00;90.21
43161;BME280;40968;52.342;5.528;2023-11-19T06:07:31;100605.53;;;10.42;90.13
43161;BME280;40968;52.342;5.528;2023-11-19T06:09:59;100677.97;;;10.99;89.75
43161;BME280;40968;52.342;5.528;2023-11-19T06:12:26;100655.28;;;10.80;89.18
43161;BME280;40968;52.342;5.528;2023-11-19T06:14:53;100674.56;;;10.97;89.00
43161;BME280;40968;52.342;5.528;2023-11-19T06:17:19;100599.72;;;10.48;88.81
43161;BME280;40968;52.342;5.528;2023-11-19T06:19:46;100691.84;;;10.92;88.73
43161;BME280;40968;52.342;5.528;2023-11-19T06:22:12;100649.19;;;10.67;87.84
43161;BME280;40968;52.342;5.528;2023-11-19T06:24:39;100697.34;;;10.91;88.03
43161;BME280;40968;52.342;5.528;2023-11-19T06:27:07;100643.53;;;10.58;87.99
43161;BME280;40968;52.342;5.528;2023-11-19T06:29:33;100704.66;;;10.89;88.01
43161;BME280;40968;52.342;5.528;2023-11-19T06:32:00;100702.81;;;10.89;87.96
43161;BME280;40968;52.342;5.528;2023-11-19T06:34:26;100695.75;;;10.88;87.55
43161;BME280;40968;52.342;5.528;2023-11-19T06:36:53;100492.69;;;9.64;87.46
43161;BME280;40968;52.342;5.528;2023-11-19T06:39:19;100623.19;;;10.44;87.43
43161;BME280;40968;52.342;5.528;2023-11-19T06:41:47;100662.34;;;10.70;87.67
43161;BME280;40968;52.342;5.528;2023-11-19T06:44:15;100692.34;;;10.86;87.58
43161;BME280;40968;52.342;5.528;2023-11-19T06:46:42;100684.31;;;10.86;87.30
43161;BME280;40968;52.342;5.528;2023-11-19T06:49:08;100681.63;;;10.86;87.41
43161;BME280;40968;52.342;5.528;2023-11-19T06:51:35;100694.28;;;10.84;87.70
43161;BME280;40968;52.342;5.528;2023-11-19T06:54:01;100693.56;;;10.82;87.48
43161;BME280;40968;52.342;5.528;2023-11-19T06:56:28;100679.50;;;10.67;87.56
43161;BME280;40968;52.342;5.528;2023-11-19T06:58:54;100678.66;;;10.67;87.44
43161;BME280;40968;52.342;5.528;2023-11-19T07:01:22;100700.88;;;10.80;87.60
43161;BME280;40968;52.342;5.528;2023-11-19T07:03:49;100697.44;;;10.78;87.82
43161;BME280;40968;52.342;5.528;2023-11-19T07:06:16;100638.91;;;10.38;87.42
43161;BME280;40968;52.342;5.528;2023-11-19T07:08:43;100702.78;;;10.78;87.63
43161;BME280;40968;52.342;5.528;2023-11-19T07:11:11;100686.84;;;10.65;87.65
43161;BME280;40968;52.342;5.528;2023-11-19T07:13:40;100714.50;;;10.77;87.75
43161;BME280;40968;52.342;5.528;2023-11-19T07:16:07;100717.19;;;10.77;87.72
43161;BME280;40968;52.342;5.528;2023-11-19T07:18:37;100705.59;;;10.76;87.75
43161;BME280;40968;52.342;5.528;2023-11-19T07:21:04;100710.97;;;10.76;87.93
43161;BME280;40968;52.342;5.528;2023-11-19T07:23:31;100698.41;;;10.66;87.88
43161;BME280;40968;52.342;5.528;2023-11-19T07:25:58;100701.81;;;10.68;87.83
43161;BME280;40968;52.342;5.528;2023-11-19T07:28:24;100694.25;;;10.61;87.84
43161;BME280;40968;52.342;5.528;2023-11-19T07:30:51;100719.63;;;10.80;87.68
43161;BME280;40968;52.342;5.528;2023-11-19T07:33:17;100699.84;;;10.70;87.65
43161;BME280;40968;52.342;5.528;2023-11-19T07:35:45;100537.09;;;9.67;87.43
43161;BME280;40968;52.342;5.528;2023-11-19T07:38:12;100714.50;;;10.77;87.53
43161;BME280;40968;52.342;5.528;2023-11-19T07:40:38;100584.81;;;9.97;87.46
43161;BME280;40968;52.342;5.528;2023-11-19T07:43:05;100656.16;;;10.34;87.59
43161;BME280;40968;52.342;5.528;2023-11-19T07:45:32;100739.13;;;10.82;87.86
43161;BME280;40968;52.342;5.528;2023-11-19T07:47:59;100712.53;;;10.68;87.62
43161;BME280;40968;52.342;5.528;2023-11-19T07:50:26;100727.91;;;10.77;87.96
43161;BME280;40968;52.342;5.528;2023-11-19T07:52:54;100623.69;;;10.14;87.60
43161;BME280;40968;52.342;5.528;2023-11-19T07:55:21;100632.25;;;10.19;87.46
43161;BME280;40968;52.342;5.528;2023-11-19T07:57:48;100732.56;;;10.86;87.41
43161;BME280;40968;52.342;5.528;2023-11-19T08:00:15;100636.66;;;10.32;87.52
43161;BME280;40968;52.342;5.528;2023-11-19T08:02:41;100693.53;;;10.71;87.32
43161;BME280;40968;52.342;5.528;2023-11-19T08:05:08;100726.94;;;10.89;87.21
43161;BME280;40968;52.342;5.528;2023-11-19T08:07:35;100635.56;;;10.34;86.98
43161;BME280;40968;52.342;5.528;2023-11-19T08:10:04;100567.88;;;9.96;86.83
43161;BME280;40968;52.342;5.528;2023-11-19T08:12:35;100726.69;;;10.92;86.68
43161;BME280;40968;52.342;5.528;2023-11-19T08:15:02;100604.19;;;10.12;86.67
43161;BME280;40968;52.342;5.528;2023-11-19T08:17:30;100732.19;;;10.91;86.55
43161;BME280;40968;52.342;5.528;2023-11-19T08:19:56;100732.31;;;10.89;86.51
43161;BME280;40968;52.342;5.528;2023-11-19T08:22:24;100732.19;;;10.91;86.64
43161;BME280;40968;52.342;5.528;2023-11-19T08:24:51;100735.75;;;10.91;86.57
43161;BME280;40968;52.342;5.528;2023-11-19T08:27:18;100699.03;;;10.69;86.53
43161;BME280;40968;52.342;5.528;2023-11-19T08:29:51;100692.78;;;10.69;86.43
43161;BME280;40968;52.342;5.528;2023-11-19T08:32:18;100686.47;;;10.70;86.42
43161;BME280;40968;52.342;5.528;2023-11-19T08:34:45;100593.50;;;10.12;86.55
43161;BME280;40968;52.342;5.528;2023-11-19T08:37:11;100561.31;;;9.89;86.54
43161;BME280;40968;52.342;5.528;2023-11-19T08:39:38;100581.56;;;10.05;86.74
43161;BME280;40968;52.342;5.528;2023-11-19T08:42:05;100629.13;;;10.37;86.52
43161;BME280;40968;52.342;5.528;2023-11-19T08:44:33;100729.41;;;11.04;86.72
43161;BME280;40968;52.342;5.528;2023-11-19T08:46:59;100746.25;;;11.06;86.57
43161;BME280;40968;52.342;5.528;2023-11-19T08:49:26;100733.56;;;11.08;86.73
43161;BME280;40968;52.342;5.528;2023-11-19T08:51:52;100731.50;;;11.11;86.72
43161;BME280;40968;52.342;5.528;2023-11-19T08:54:19;100708.22;;;11.01;86.87
43161;BME280;40968;52.342;5.528;2023-11-19T08:56:48;100738.47;;;11.14;86.93
43161;BME280;40968;52.342;5.528;2023-11-19T08:59:15;100593.53;;;10.23;86.76
43161;BME280;40968;52.342;5.528;2023-11-19T09:01:44;100636.00;;;10.64;86.34
43161;BME280;40968;52.342;5.528;2023-11-19T09:04:11;100679.53;;;10.90;86.59
43161;BME280;40968;52.342;5.528;2023-11-19T09:06:37;100659.91;;;10.78;86.57
43161;BME280;40968;52.342;5.528;2023-11-19T09:09:04;100739.94;;;11.30;86.74
43161;BME280;40968;52.342;5.528;2023-11-19T09:11:31;100652.84;;;10.77;86.74
43161;BME280;40968;52.342;5.528;2023-11-19T09:13:57;100702.13;;;11.10;86.73
43161;BME280;40968;52.342;5.528;2023-11-19T09:16:24;100706.13;;;11.16;86.58
43161;BME280;40968;52.342;5.528;2023-11-19T09:18:52;100712.13;;;11.19;86.70
43161;BME280;40968;52.342;5.528;2023-11-19T09:21:19;100684.56;;;11.06;86.75
43161;BME280;40968;52.342;5.528;2023-11-19T09:23:45;100594.22;;;10.61;86.53
43161;BME280;40968;52.342;5.528;2023-11-19T09:26:14;100534.72;;;10.22;86.48
43161;BME280;40968;52.342;5.528;2023-11-19T09:28:40;100737.84;;;11.44;86.64
43161;BME280;40968;52.342;5.528;2023-11-19T09:31:13;100620.19;;;10.72;86.65
43161;BME280;40968;52.342;5.528;2023-11-19T09:33:39;100741.63;;;11.42;86.86
43161;BME280;40968;52.342;5.528;2023-11-19T09:36:08;100744.56;;;11.39;86.86
43161;BME280;40968;52.342;5.528;2023-11-19T09:38:36;100692.38;;;11.09;86.58
43161;BME280;40968;52.342;5.528;2023-11-19T09:41:04;100717.22;;;11.22;86.19
43161;BME280;40968;52.342;5.528;2023-11-19T09:43:33;100617.16;;;10.65;86.06
43161;BME280;40968;52.342;5.528;2023-11-19T09:46:04;100746.03;;;11.43;86.34
43161;BME280;40968;52.342;5.528;2023-11-19T09:48:33;100654.81;;;10.98;86.19
43161;BME280;40968;52.342;5.528;2023-11-19T09:51:00;100751.63;;;11.51;85.99
43161;BME280;40968;52.342;5.528;2023-11-19T09:53:28;100705.78;;;11.32;85.42
43161;BME280;40968;52.342;5.528;2023-11-19T09:55:55;100738.84;;;11.55;85.70
43161;BME280;40968;52.342;5.528;2023-11-19T09:58:22;100698.94;;;11.27;85.37
43161;BME280;40968;52.342;5.528;2023-11-19T10:00:49;100672.72;;;11.20;85.33
43161;BME280;40968;52.342;5.528;2023-11-19T10:03:17;100578.03;;;10.63;85.22
43161;BME280;40968;52.342;5.528;2023-11-19T10:05:44;100578.53;;;10.68;85.04
43161;BME280;40968;52.342;5.528;2023-11-19T10:08:10;100516.09;;;10.32;84.62
43161;BME280;40968;52.342;5.528;2023-11-19T10:10:38;100529.25;;;10.35;84.64
43161;BME280;40968;52.342;5.528;2023-11-19T10:13:05;100686.03;;;11.33;84.36
43161;BME280;40968;52.342;5.528;2023-11-19T10:15:36;100732.38;;;11.69;84.61
43161;BME280;40968;52.342;5.528;2023-11-19T10:18:03;100721.50;;;11.70;84.06
43161;BME280;40968;52.342;5.528;2023-11-19T10:20:35;100635.56;;;11.15;84.03
43161;BME280;40968;52.342;5.528;2023-11-19T10:23:01;100722.34;;;11.71;84.13
43161;BME280;40968;52.342;5.528;2023-11-19T10:25:29;100650.91;;;11.24;84.04
43161;BME280;40968;52.342;5.528;2023-11-19T10:27:57;100720.63;;;11.70;84.57
43161;BME280;40968;52.342;5.528;2023-11-19T10:30:24;100718.94;;;11.69;84.46
43161;BME280;40968;52.342;5.528;2023-11-19T10:33:10;100703.53;;;11.71;84.78
43161;BME280;40968;52.342;5.528;2023-11-19T10:35:51;100617.75;;;11.14;84.77
43161;BME280;40968;52.342;5.528;2023-11-19T10:38:18;100687.47;;;11.59;84.50
43161;BME280;40968;52.342;5.528;2023-11-19T10:40:45;100680.53;;;11.57;84.44
43161;BME280;40968;52.342;5.528;2023-11-19T10:43:13;100586.06;;;11.08;84.01
43161;BME280;40968;52.342;5.528;2023-11-19T10:45:40;100726.19;;;11.89;84.17
43161;BME280;40968;52.342;5.528;2023-11-19T10:48:07;100685.38;;;11.74;84.01
43161;BME280;40968;52.342;5.528;2023-11-19T10:50:34;100602.75;;;11.23;83.53
43161;BME280;40968;52.342;5.528;2023-11-19T10:53:02;100601.41;;;11.28;83.63
43161;BME280;40968;52.342;5.528;2023-11-19T10:55:30;100710.09;;;12.01;83.82
43161;BME280;40968;52.342;5.528;2023-11-19T10:57:59;100595.56;;;11.23;83.31
43161;BME280;40968;52.342;5.528;2023-11-19T11:00:29;100616.03;;;11.36;83.25
43161;BME280;40968;52.342;5.528;2023-11-19T11:03:00;100693.63;;;11.83;83.12
43161;BME280;40968;52.342;5.528;2023-11-19T11:05:29;100551.59;;;11.03;82.65
43161;BME280;40968;52.342;5.528;2023-11-19T11:07:58;100680.06;;;11.84;82.51
43161;BME280;40968;52.342;5.528;2023-11-19T11:10:27;100696.88;;;12.09;82.83
43161;BME280;40968;52.342;5.528;2023-11-19T11:12:57;100681.16;;;12.04;81.41
43161;BME280;40968;52.342;5.528;2023-11-19T11:15:28;100719.97;;;12.44;80.89
43161;BME280;40968;52.342;5.528;2023-11-19T11:17:57;100700.91;;;12.47;79.76
43161;BME280;40968;52.342;5.528;2023-11-19T11:20:25;100592.69;;;11.80;78.61
43161;BME280;40968;52.342;5.528;2023-11-19T11:23:03;100708.97;;;12.47;78.18
43161;BME280;40968;52.342;5.528;2023-11-19T11:25:35;100710.06;;;12.44;77.72
43161;BME280;40968;52.342;5.528;2023-11-19T11:28:13;100681.94;;;12.27;77.56
43161;BME280;40968;52.342;5.528;2023-11-19T11:31:00;100709.47;;;12.41;77.87
43161;BME280;40968;52.342;5.528;2023-11-19T11:33:41;100674.38;;;12.21;78.47
43161;BME280;40968;52.342;5.528;2023-11-19T11:36:19;100519.06;;;11.29;77.73
43161;BME280;40968;52.342;5.528;2023-11-19T11:38:48;100654.91;;;12.08;78.03
43161;BME280;40968;52.342;5.528;2023-11-19T11:41:15;100498.25;;;11.21;77.27
43161;BME280;40968;52.342;5.528;2023-11-19T11:43:44;100683.38;;;12.32;77.21
43161;BME280;40968;52.342;5.528;2023-11-19T11:49:13;100706.97;;;12.49;76.40
43161;BME280;40968;52.342;5.528;2023-11-19T11:52:02;100548.25;;;11.66;75.15
43161;BME280;40968;52.342;5.528;2023-11-19T11:54:29;100697.03;;;12.61;74.69
43161;BME280;40968;52.342;5.528;2023-11-19T11:57:06;100704.31;;;12.70;74.73
43161;BME280;40968;52.342;5.528;2023-11-19T11:59:37;100666.06;;;12.67;74.07
43161;BME280;40968;52.342;5.528;2023-11-19T12:02:03;100475.31;;;11.61;73.67
43161;BME280;40968;52.342;5.528;2023-11-19T12:04:31;100664.84;;;12.71;73.48
43161;BME280;40968;52.342;5.528;2023-11-19T12:07:04;100607.88;;;12.35;72.43
43161;BME280;40968;52.342;5.528;2023-11-19T12:09:31;100683.78;;;12.69;72.59
43161;BME280;40968;52.342;5.528;2023-11-19T12:12:07;100690.94;;;12.80;73.01
43161;BME280;40968;52.342;5.528;2023-11-19T12:14:59;100684.53;;;12.81;72.88
43161;BME280;40968;52.342;5.528;2023-11-19T12:17:44;100663.66;;;12.64;72.87
43161;BME280;40968;52.342;5.528;2023-11-19T12:20:16;100523.81;;;11.90;72.88
43161;BME280;40968;52.342;5.528;2023-11-19T12:22:44;100679.06;;;12.83;72.18
43161;BME280;40968;52.342;5.528;2023-11-19T12:25:12;100548.50;;;11.96;72.52
43161;BME280;40968;52.342;5.528;2023-11-19T12:27:40;100629.78;;;12.51;71.52
43161;BME280;40968;52.342;5.528;2023-11-19T12:30:08;100655.06;;;12.70;71.91
43161;BME280;40968;52.342;5.528;2023-11-19T12:32:38;100697.75;;;12.84;71.89
43161;BME280;40968;52.342;5.528;2023-11-19T12:35:06;100662.16;;;12.71;72.11
43161;BME280;40968;52.342;5.528;2023-11-19T12:37:40;100662.84;;;12.73;72.66
43161;BME280;40968;52.342;5.528;2023-11-19T12:40:16;100677.94;;;12.85;73.22
43161;BME280;40968;52.342;5.528;2023-11-19T12:42:43;100666.28;;;12.75;73.81
43161;BME280;40968;52.342;5.528;2023-11-19T12:45:10;100492.97;;;11.64;74.28
43161;BME280;40968;52.342;5.528;2023-11-19T12:47:38;100500.25;;;11.73;74.69
43161;BME280;40968;52.342;5.528;2023-11-19T12:50:05;100682.88;;;12.80;74.92
43161;BME280;40968;52.342;5.528;2023-11-19T12:52:33;100687.38;;;12.80;74.88
43161;BME280;40968;52.342;5.528;2023-11-19T12:55:01;100672.78;;;12.72;75.04